Time;durP1;ratioP1;P1;durP2;ratioP2;P2;SDS_P1;SDS_P2;PMS_P1;PMS_P2;Temp;Humidity;BMP_temperature;BMP_pressure;BME280_temperature;BME280_humidity;BME280_pressure;Samples;Min_cycle;Max_cycle;Signal;HPM_P1;HPM_P2
2022/06/13 00:00:34;;;;;;;7.53;1.88;;;16.60;88.00;;;;;;5068025;28;45315;-77
2022/06/13 00:03:02;;;;;;;5.28;2.15;;;16.60;87.70;;;;;;5062346;28;45461;-77
2022/06/13 00:05:29;;;;;;;9.40;1.90;;;16.60;86.80;;;;;;5067864;28;45334;-77
2022/06/13 00:07:56;;;;;;;4.03;1.58;;;16.60;87.70;;;;;;5066156;28;47401;-77
2022/06/13 00:10:23;;;;;;;7.13;1.58;;;16.50;88.10;;;;;;5069104;28;45394;-77
2022/06/13 00:12:51;;;;;;;5.00;1.67;;;16.40;88.40;;;;;;5067214;28;45188;-77
2022/06/13 00:15:18;;;;;;;9.90;2.03;;;16.40;88.80;;;;;;5068707;28;45460;-77
2022/06/13 00:17:45;;;;;;;6.32;2.25;;;16.30;89.20;;;;;;5064536;28;46331;-77
2022/06/13 00:20:13;;;;;;;5.32;1.80;;;16.30;89.50;;;;;;5074795;28;45346;-77
2022/06/13 00:22:39;;;;;;;7.60;1.95;;;16.30;89.40;;;;;;5070566;28;45232;-77
2022/06/13 00:25:07;;;;;;;7.68;2.20;;;16.20;89.70;;;;;;5069027;28;45271;-77
2022/06/13 00:28:22;;;;;;;8.30;1.80;;;16.20;90.20;;;;;;5066427;28;48936;-77
2022/06/13 00:31:24;;;;;;;5.95;1.75;;;16.10;90.00;;;;;;5060093;28;46635;-77
2022/06/13 00:37:13;;;;;;;4.88;1.77;;;16.10;90.00;;;;;;5059896;28;45214;-77
2022/06/13 00:39:40;;;;;;;7.97;1.50;;;16.00;90.20;;;;;;5064495;28;46581;-77
2022/06/13 00:42:07;;;;;;;6.10;2.10;;;16.00;90.00;;;;;;5064422;28;45321;-77
2022/06/13 00:44:37;;;;;;;7.38;1.92;;;16.00;90.00;;;;;;5070680;28;45639;-77
2022/06/13 00:47:06;;;;;;;6.40;2.03;;;15.90;90.10;;;;;;5070999;28;45610;-77
2022/06/13 00:49:39;;;;;;;5.82;1.73;;;15.90;90.20;;;;;;5071731;28;45986;-76
2022/06/13 00:52:10;;;;;;;8.75;1.77;;;16.00;90.20;;;;;;5066823;28;45193;-77
2022/06/13 00:54:39;;;;;;;8.15;2.15;;;16.00;90.30;;;;;;5066885;28;45373;-77
2022/06/13 00:57:09;;;;;;;5.82;2.33;;;16.00;90.40;;;;;;5073328;28;45430;-77
2022/06/13 00:59:39;;;;;;;7.45;1.90;;;15.90;90.70;;;;;;5068998;28;46401;-76
2022/06/13 01:02:08;;;;;;;11.20;1.83;;;15.80;91.00;;;;;;5064427;28;45244;-77
2022/06/13 01:04:35;;;;;;;5.50;1.98;;;15.80;90.90;;;;;;5062189;28;45706;-77
2022/06/13 01:13:11;;;;;;;7.55;2.13;;;15.70;91.60;;;;;;5069293;28;45268;-77
2022/06/13 01:16:01;;;;;;;7.05;2.00;;;15.60;91.70;;;;;;5068244;28;45158;-77
2022/06/13 01:18:45;;;;;;;8.85;2.30;;;15.60;91.70;;;;;;5080860;28;45233;-77
2022/06/13 01:21:19;;;;;;;7.50;2.28;;;15.60;91.80;;;;;;5070462;28;45525;-77
2022/06/13 01:24:22;;;;;;;12.70;2.40;;;15.60;91.80;;;;;;5068409;28;45275;-77
2022/06/13 01:27:23;;;;;;;3.60;1.92;;;15.50;92.10;;;;;;5064279;28;45285;-77
2022/06/13 01:30:20;;;;;;;5.80;2.22;;;15.40;92.50;;;;;;5060796;28;45435;-77
2022/06/13 01:32:55;;;;;;;10.65;2.97;;;15.50;92.50;;;;;;5075977;28;47135;-77
2022/06/13 01:35:34;;;;;;;5.60;2.22;;;15.50;92.20;;;;;;5081313;28;45598;-77
2022/06/13 01:38:10;;;;;;;6.10;2.00;;;15.60;92.10;;;;;;5074013;28;45455;-77
2022/06/13 01:40:51;;;;;;;12.65;2.45;;;15.70;92.10;;;;;;5068447;28;45257;-77
2022/06/13 01:43:26;;;;;;;13.80;2.90;;;15.70;92.10;;;;;;5066103;28;47714;-77
2022/06/13 01:46:03;;;;;;;7.80;2.30;;;15.70;92.00;;;;;;5067365;28;46222;-77
2022/06/13 01:48:36;;;;;;;9.38;2.25;;;15.80;91.90;;;;;;5065685;28;45329;-77
2022/06/13 01:51:14;;;;;;;8.60;2.67;;;15.60;92.30;;;;;;5065953;28;45208;-77
2022/06/13 01:53:49;;;;;;;9.07;2.42;;;15.60;92.30;;;;;;5060842;28;46171;-77
2022/06/13 01:56:18;;;;;;;9.82;2.83;;;15.60;92.50;;;;;;5065855;28;45591;-77
2022/06/13 01:58:50;;;;;;;7.72;2.97;;;15.60;92.50;;;;;;5066362;28;47571;-77
2022/06/13 02:01:24;;;;;;;8.10;2.58;;;15.60;92.80;;;;;;5064200;28;45356;-77
2022/06/13 02:03:59;;;;;;;8.52;2.92;;;15.70;92.80;;;;;;5065685;28;45521;-77
2022/06/13 02:06:30;;;;;;;6.60;2.47;;;15.60;92.90;;;;;;5066503;28;45403;-77
2022/06/13 02:09:00;;;;;;;11.43;2.42;;;15.70;93.00;;;;;;5066224;28;45162;-77
2022/06/13 02:11:33;;;;;;;9.55;2.70;;;15.80;92.80;;;;;;5064447;28;45219;-77
2022/06/13 02:14:05;;;;;;;5.97;2.22;;;15.90;92.80;;;;;;5066023;28;46199;-77
2022/06/13 02:19:46;;;;;;;9.07;2.97;;;15.80;93.30;;;;;;5032717;28;45244;-77
2022/06/13 02:22:19;;;;;;;7.97;2.30;;;15.70;93.30;;;;;;5066218;28;45662;-77
2022/06/13 02:24:51;;;;;;;10.25;3.05;;;15.60;93.40;;;;;;5064470;28;45559;-77
2022/06/13 02:27:20;;;;;;;7.75;2.67;;;15.70;93.50;;;;;;5061474;28;45407;-77
2022/06/13 02:29:50;;;;;;;9.75;2.60;;;15.60;93.50;;;;;;5065764;28;45264;-77
2022/06/13 02:32:20;;;;;;;13.10;2.78;;;15.60;93.50;;;;;;5063202;28;45457;-77
2022/06/13 02:34:52;;;;;;;9.43;2.83;;;15.70;93.50;;;;;;5070664;28;47825;-77
2022/06/13 02:37:24;;;;;;;8.68;2.50;;;15.80;93.50;;;;;;5079431;28;45267;-76
2022/06/13 02:39:54;;;;;;;8.82;2.97;;;15.80;92.70;;;;;;5066579;28;45271;-77
2022/06/13 02:42:24;;;;;;;6.97;2.67;;;15.80;93.10;;;;;;5064386;28;45456;-77
2022/06/13 02:44:58;;;;;;;8.18;2.40;;;15.90;93.30;;;;;;5066440;28;45311;-77
2022/06/13 02:47:31;;;;;;;5.90;2.40;;;15.80;93.30;;;;;;5063810;28;45255;-77
2022/06/13 02:50:04;;;;;;;10.30;2.83;;;15.80;92.90;;;;;;5062604;28;45343;-77
2022/06/13 02:52:37;;;;;;;6.82;2.47;;;15.70;93.20;;;;;;5064982;28;45305;-76
2022/06/13 02:55:07;;;;;;;9.73;2.75;;;15.60;93.40;;;;;;5062979;28;46152;-77
2022/06/13 02:57:47;;;;;;;8.20;2.92;;;15.50;93.60;;;;;;5064093;28;45540;-77
2022/06/13 03:00:45;;;;;;;8.05;2.85;;;15.40;93.80;;;;;;5064170;28;46558;-77
2022/06/13 03:03:17;;;;;;;9.93;3.58;;;15.30;94.10;;;;;;5058821;28;45848;-77
2022/06/13 03:09:15;;;;;;;8.90;2.75;;;15.30;93.70;;;;;;5056829;28;45319;-76
2022/06/13 03:11:51;;;;;;;10.05;3.00;;;15.50;93.80;;;;;;5057711;28;45342;-77
2022/06/13 03:14:35;;;;;;;9.15;2.50;;;15.50;93.60;;;;;;5063823;28;45103;-77
2022/06/13 03:17:05;;;;;;;13.13;3.00;;;15.60;93.50;;;;;;5057005;28;45223;-77
2022/06/13 03:19:38;;;;;;;6.63;2.35;;;15.80;93.20;;;;;;5066306;28;45393;-77
2022/06/13 03:22:09;;;;;;;8.63;2.72;;;15.80;93.00;;;;;;5060961;28;45180;-77
2022/06/13 03:24:45;;;;;;;13.63;3.55;;;16.00;92.80;;;;;;5060153;28;45163;-77
2022/06/13 03:27:16;;;;;;;11.15;3.40;;;16.00;92.50;;;;;;5062167;28;46277;-77
2022/06/13 03:29:48;;;;;;;7.03;2.65;;;16.10;92.40;;;;;;5065069;28;45294;-77
2022/06/13 03:32:17;;;;;;;9.32;2.65;;;16.00;92.70;;;;;;5061051;28;45248;-77
2022/06/13 03:34:50;;;;;;;7.80;2.63;;;16.00;92.70;;;;;;5065519;28;45387;-77
2022/06/13 03:37:22;;;;;;;9.43;2.75;;;16.00;92.70;;;;;;5064409;28;47143;-77
2022/06/13 03:39:54;;;;;;;9.93;2.45;;;15.90;93.10;;;;;;5069013;28;45091;-77
2022/06/13 03:42:27;;;;;;;7.03;2.30;;;15.90;93.10;;;;;;5067853;28;45175;-77
2022/06/13 03:45:00;;;;;;;5.53;2.58;;;15.70;93.30;;;;;;5068819;28;45270;-77
2022/06/13 03:47:31;;;;;;;5.72;2.60;;;15.80;93.50;;;;;;5066999;28;46767;-77
2022/06/13 03:50:05;;;;;;;11.05;3.00;;;15.80;93.10;;;;;;5068600;28;46138;-77
2022/06/13 03:52:35;;;;;;;12.85;2.92;;;15.80;93.00;;;;;;5066937;28;45293;-77
2022/06/13 03:55:09;;;;;;;7.85;2.80;;;15.80;93.40;;;;;;5068073;28;45344;-77
2022/06/13 03:57:40;;;;;;;9.77;2.83;;;15.70;93.60;;;;;;5067383;28;46255;-77
2022/06/13 04:00:10;;;;;;;8.90;2.72;;;15.70;93.80;;;;;;5067563;28;45420;-77
2022/06/13 04:02:40;;;;;;;9.50;2.60;;;15.60;93.90;;;;;;5066621;28;45328;-77
2022/06/13 04:05:15;;;;;;;8.52;2.97;;;15.60;94.00;;;;;;5069522;28;45159;-77
2022/06/13 04:07:43;;;;;;;6.80;2.50;;;15.60;94.20;;;;;;5064432;28;45534;-77
2022/06/13 04:10:15;;;;;;;9.77;2.55;;;15.60;94.40;;;;;;5069254;28;45390;-77
2022/06/13 04:13:21;;;;;;;11.65;3.10;;;15.60;94.40;;;;;;5061217;28;45746;-77
2022/06/13 04:16:05;;;;;;;14.68;3.00;;;15.60;94.20;;;;;;5199461;22;45994;-73
2022/06/13 04:18:45;;;;;;;11.07;3.08;;;15.70;94.20;;;;;;5084417;28;46335;-74
2022/06/13 04:21:28;;;;;;;20.48;3.17;;;15.70;94.00;;;;;;5084572;28;45286;-74
2022/06/13 04:24:08;;;;;;;11.70;2.47;;;15.80;94.10;;;;;;5083059;28;45290;-74
2022/06/13 04:26:44;;;;;;;14.68;3.53;;;15.90;94.20;;;;;;5084413;28;45373;-74
2022/06/13 04:29:20;;;;;;;8.05;2.38;;;16.00;93.90;;;;;;5081742;28;46178;-74
2022/06/13 04:31:48;;;;;;;11.35;3.20;;;16.00;93.60;;;;;;5085282;28;45263;-74
2022/06/13 04:34:18;;;;;;;12.63;2.70;;;16.10;93.60;;;;;;5078451;28;45416;-74
2022/06/13 04:36:46;;;;;;;9.95;2.70;;;16.30;93.30;;;;;;5084668;27;46418;-74
2022/06/13 04:39:16;;;;;;;12.60;3.10;;;16.20;93.50;;;;;;5085246;28;47983;-74
2022/06/13 04:41:46;;;;;;;13.68;2.88;;;16.20;93.40;;;;;;5083936;28;45600;-74
2022/06/13 04:44:18;;;;;;;9.43;2.90;;;16.00;93.70;;;;;;5076973;28;45361;-74
2022/06/13 04:46:46;;;;;;;13.63;3.13;;;15.90;94.30;;;;;;5076716;28;45596;-74
2022/06/13 04:49:24;;;;;;;25.48;3.67;;;15.80;94.30;;;;;;5082298;27;46180;-74
2022/06/13 04:51:53;;;;;;;19.80;3.83;;;15.60;94.80;;;;;;5086733;28;45904;-74
2022/06/13 04:54:27;;;;;;;13.95;3.83;;;15.50;99.90;;;;;;5078577;28;45247;-74
2022/06/13 04:56:59;;;;;;;11.80;3.50;;;15.20;99.90;;;;;;5086482;28;45579;-74
2022/06/13 04:59:27;;;;;;;18.80;4.15;;;15.00;99.90;;;;;;5078799;28;47260;-74
2022/06/13 05:01:56;;;;;;;12.90;4.05;;;15.00;99.90;;;;;;5080342;28;45517;-74
2022/06/13 05:04:26;;;;;;;17.80;3.53;;;15.10;99.90;;;;;;5078868;27;45352;-74
2022/06/13 05:06:54;;;;;;;21.77;4.38;;;15.40;99.90;;;;;;5089564;27;45605;-74
2022/06/13 05:09:24;;;;;;;11.40;3.72;;;15.30;99.90;;;;;;5084443;28;45740;-74
2022/06/13 05:11:55;;;;;;;13.43;3.92;;;15.20;99.90;;;;;;5079994;28;47077;-74
2022/06/13 05:14:30;;;;;;;10.05;3.42;;;15.00;99.90;;;;;;5076582;28;45654;-74
2022/06/13 05:17:10;;;;;;;13.52;3.60;;;14.90;99.90;;;;;;5084543;28;45354;-74
2022/06/13 05:19:49;;;;;;;13.60;3.95;;;15.10;99.90;;;;;;5079953;28;46315;-74
2022/06/13 05:22:32;;;;;;;14.68;3.83;;;15.40;99.90;;;;;;5078897;28;45526;-74
2022/06/13 05:25:13;;;;;;;8.90;3.55;;;15.70;99.90;;;;;;5084575;28;45327;-74
2022/06/13 05:27:40;;;;;;;11.60;3.53;;;15.70;99.90;;;;;;5080989;28;45138;-74
2022/06/13 05:30:13;;;;;;;15.73;3.78;;;15.70;99.90;;;;;;5084050;28;46589;-74
2022/06/13 05:32:40;;;;;;;17.08;3.55;;;15.60;99.90;;;;;;5083088;28;45422;-74
2022/06/13 05:35:07;;;;;;;16.58;3.83;;;15.60;99.90;;;;;;5076460;28;45146;-74
2022/06/13 05:37:34;;;;;;;16.65;3.05;;;15.50;99.90;;;;;;5080437;28;45362;-74
2022/06/13 05:40:01;;;;;;;17.17;3.95;;;15.60;99.90;;;;;;5081620;27;46205;-74
2022/06/13 05:42:28;;;;;;;13.10;3.17;;;15.60;99.90;;;;;;5077774;28;45298;-76
2022/06/13 05:44:55;;;;;;;8.98;3.05;;;15.60;99.90;;;;;;5078518;28;45375;-76
2022/06/13 05:47:23;;;;;;;10.25;3.55;;;15.80;99.90;;;;;;5076792;28;45994;-75
2022/06/13 05:49:50;;;;;;;10.63;3.47;;;16.10;99.90;;;;;;5081493;28;46216;-74
2022/06/13 05:52:16;;;;;;;9.18;3.58;;;16.30;99.90;;;;;;5082138;28;45374;-74
2022/06/13 05:54:43;;;;;;;13.85;3.80;;;16.30;99.90;;;;;;5081021;27;45332;-75
2022/06/13 05:57:11;;;;;;;8.98;3.83;;;16.20;99.90;;;;;;5078502;28;45480;-75
2022/06/13 05:59:38;;;;;;;11.35;3.60;;;16.30;99.90;;;;;;5082549;28;47658;-75
2022/06/13 06:02:05;;;;;;;16.33;4.38;;;16.40;99.90;;;;;;5080714;27;45644;-74
2022/06/13 06:04:33;;;;;;;10.32;3.70;;;16.50;99.90;;;;;;5077681;28;45207;-74
2022/06/13 06:07:00;;;;;;;14.10;3.75;;;16.50;99.90;;;;;;5076437;28;45416;-75
2022/06/13 06:09:27;;;;;;;11.32;3.60;;;16.60;99.90;;;;;;5082765;28;45618;-74
2022/06/13 06:11:53;;;;;;;11.60;3.95;;;16.70;99.90;;;;;;5073634;28;45387;-74
2022/06/13 06:14:20;;;;;;;14.07;3.28;;;16.70;99.90;;;;;;5072702;28;45692;-74
2022/06/13 06:16:47;;;;;;;10.85;3.65;;;16.90;99.90;;;;;;5081731;28;45436;-74
2022/06/13 06:19:14;;;;;;;11.30;3.60;;;16.70;99.90;;;;;;5073343;28;46250;-75
2022/06/13 06:21:42;;;;;;;13.48;3.65;;;16.70;99.90;;;;;;5075400;28;46660;-74
2022/06/13 06:24:09;;;;;;;11.65;3.50;;;16.70;99.90;;;;;;5080773;28;45137;-75
2022/06/13 06:26:38;;;;;;;14.25;4.15;;;16.70;99.90;;;;;;5085254;28;45194;-74
2022/06/13 06:29:05;;;;;;;18.60;4.30;;;16.60;99.90;;;;;;5079189;28;48286;-74
2022/06/13 06:31:33;;;;;;;16.02;4.00;;;16.70;99.90;;;;;;5080622;27;46174;-74
2022/06/13 06:34:00;;;;;;;18.00;4.75;;;16.70;99.90;;;;;;5080810;28;45166;-74
2022/06/13 06:36:27;;;;;;;16.95;4.30;;;16.60;99.90;;;;;;5075829;28;46324;-73
2022/06/13 06:39:47;;;;;;;20.52;4.70;;;16.80;99.90;;;;;;5081433;28;46646;-74
2022/06/13 06:42:17;;;;;;;13.93;4.00;;;16.80;99.90;;;;;;5073023;27;45460;-75
2022/06/13 06:48:07;;;;;;;17.05;5.82;;;16.50;99.90;;;;;;5077815;28;45481;-75
2022/06/13 06:50:36;;;;;;;19.70;5.22;;;16.30;99.90;;;;;;5085023;28;45518;-75
2022/06/13 06:53:03;;;;;;;22.20;5.40;;;16.10;99.90;;;;;;5087522;28;45343;-75
2022/06/13 07:05:16;;;;;;;24.65;8.52;;;16.40;99.90;;;;;;5096981;27;45527;-75
2022/06/13 07:07:43;;;;;;;28.50;8.13;;;16.30;99.90;;;;;;5095343;27;45109;-75
2022/06/13 07:10:12;;;;;;;31.70;9.23;;;16.30;99.90;;;;;;5099239;27;45342;-76
2022/06/13 07:12:39;;;;;;;33.05;9.55;;;16.30;99.90;;;;;;5091766;27;45406;-74
2022/06/13 07:15:07;;;;;;;27.52;10.95;;;16.30;99.90;;;;;;5091298;28;45291;-74
2022/06/13 07:17:34;;;;;;;28.98;10.98;;;16.30;99.90;;;;;;5087559;27;45231;-75
2022/06/13 07:23:06;;;;;;;25.35;10.20;;;16.90;99.90;;;;;;5073381;27;45594;-74
2022/06/13 07:25:33;;;;;;;28.15;9.63;;;16.30;99.90;;;;;;5080965;27;45371;-74
2022/06/13 07:28:00;;;;;;;25.30;9.52;;;16.50;99.90;;;;;;5077338;27;45398;-75
2022/06/13 07:30:30;;;;;;;21.48;9.93;;;17.00;99.90;;;;;;5078281;27;46242;-74
2022/06/13 07:32:57;;;;;;;29.80;9.40;;;17.00;99.90;;;;;;5083583;27;47889;-74
2022/06/13 07:35:25;;;;;;;25.65;9.07;;;16.90;99.90;;;;;;5076552;27;46449;-75
2022/06/13 07:44:00;;;;;;;29.83;8.55;;;16.80;99.90;;;;;;5081999;27;45239;-74
2022/06/13 07:46:30;;;;;;;27.85;8.57;;;17.10;99.90;;;;;;5095182;27;45234;-73
2022/06/13 07:49:16;;;;;;;21.40;9.07;;;17.10;99.90;;;;;;5079496;27;45981;-74
2022/06/13 07:51:56;;;;;;;31.05;10.55;;;17.00;99.90;;;;;;5077414;27;46176;-76
2022/06/13 07:58:41;;;;;;;22.27;8.07;;;16.40;99.90;;;;;;5079238;27;45310;-76
2022/06/13 08:01:13;;;;;;;14.15;6.97;;;16.50;99.90;;;;;;5066005;27;46002;-77
2022/06/13 08:07:02;;;;;;;18.48;6.65;;;16.70;99.90;;;;;;5068700;27;45921;-77
2022/06/13 08:09:59;;;;;;;22.02;6.43;;;16.80;99.90;;;;;;5079075;27;45370;-77
2022/06/13 08:12:27;;;;;;;19.33;6.13;;;16.90;99.90;;;;;;5076753;27;45826;-77
2022/06/13 08:14:53;;;;;;;17.50;5.90;;;16.70;99.90;;;;;;5083355;27;45259;-77
2022/06/13 08:17:22;;;;;;;20.33;5.72;;;16.60;99.90;;;;;;5074147;27;45763;-77
2022/06/13 08:19:51;;;;;;;16.75;5.97;;;16.70;99.90;;;;;;5087812;27;45855;-77
2022/06/13 08:22:18;;;;;;;15.48;5.05;;;16.80;99.90;;;;;;5080311;27;45410;-77
2022/06/13 08:24:45;;;;;;;15.75;5.55;;;17.10;99.90;;;;;;5077823;27;45414;-77
2022/06/13 08:27:12;;;;;;;18.95;5.55;;;17.00;99.90;;;;;;5079147;27;45654;-77
2022/06/13 08:29:39;;;;;;;15.35;4.93;;;17.30;99.90;;;;;;5086476;27;45232;-77
2022/06/13 08:32:07;;;;;;;12.95;4.38;;;17.40;99.20;;;;;;5082229;27;45645;-77
2022/06/13 08:34:35;;;;;;;16.38;5.05;;;17.60;99.10;;;;;;5083242;27;45493;-77
2022/06/13 08:37:02;;;;;;;15.38;4.43;;;17.30;98.10;;;;;;5087514;27;47377;-77
2022/06/13 08:39:29;;;;;;;14.35;4.55;;;17.40;97.70;;;;;;5084240;27;45327;-77
2022/06/13 08:41:59;;;;;;;17.65;4.30;;;17.50;97.20;;;;;;5081294;27;45157;-77
2022/06/13 08:44:40;;;;;;;14.77;4.18;;;17.50;98.20;;;;;;5080743;27;45562;-77
2022/06/13 08:47:16;;;;;;;11.45;4.35;;;17.80;98.30;;;;;;5073880;27;47072;-76
2022/06/13 08:49:50;;;;;;;15.90;4.15;;;17.80;97.00;;;;;;5075739;27;45203;-77
2022/06/13 08:52:26;;;;;;;14.15;3.70;;;17.80;97.10;;;;;;5082322;27;46637;-77
2022/06/13 08:55:02;;;;;;;13.38;4.13;;;17.70;93.80;;;;;;5077185;27;45347;-76
2022/06/13 08:57:32;;;;;;;13.75;3.80;;;17.50;95.60;;;;;;5073952;27;46165;-76
2022/06/13 09:00:05;;;;;;;14.77;3.42;;;17.60;95.40;;;;;;5076443;27;45407;-76
2022/06/13 09:02:38;;;;;;;10.80;3.17;;;17.70;95.50;;;;;;5074206;27;45129;-77
2022/06/13 09:05:09;;;;;;;11.07;2.42;;;17.60;92.50;;;;;;5078726;27;45421;-77
2022/06/13 09:07:40;;;;;;;12.40;2.50;;;17.40;89.60;;;;;;5086327;27;46208;-77
2022/06/13 09:10:12;;;;;;;12.40;3.30;;;17.40;91.10;;;;;;5081963;27;45370;-77
2022/06/13 09:12:47;;;;;;;12.23;2.63;;;17.30;92.20;;;;;;5080938;27;45231;-76
2022/06/13 09:15:18;;;;;;;11.88;2.50;;;17.30;90.80;;;;;;5078212;27;45236;-77
2022/06/13 09:17:48;;;;;;;10.48;3.17;;;;;;;;;;5077342;27;46168;-77
2022/06/13 09:20:19;;;;;;;15.65;3.30;;;;;;;;;;5085465;27;45390;-76
2022/06/13 09:22:50;;;;;;;15.93;3.45;;;;;;;;;;5077477;27;45232;-76
2022/06/13 09:25:21;;;;;;;14.50;3.10;;;;;;;;;;5090858;27;45344;-76
2022/06/13 09:27:50;;;;;;;14.18;3.65;;;;;;;;;;5087686;27;47894;-76
2022/06/13 09:30:21;;;;;;;13.82;3.40;;;17.80;99.90;;;;;;5087516;27;45681;-76
2022/06/13 09:32:54;;;;;;;21.95;3.95;;;18.00;99.90;;;;;;5080955;27;45230;-76
2022/06/13 09:35:25;;;;;;;15.20;3.10;;;17.90;99.90;;;;;;5081640;27;45306;-76
2022/06/13 09:37:58;;;;;;;12.27;3.30;;;18.00;99.90;;;;;;5095584;27;46491;-77
2022/06/13 09:40:40;;;;;;;13.35;3.55;;;17.90;99.90;;;;;;5087546;27;45196;-76
2022/06/13 09:43:19;;;;;;;11.10;3.50;;;17.70;99.90;;;;;;5090083;27;45231;-77
2022/06/13 09:45:58;;;;;;;12.20;3.20;;;17.80;99.90;;;;;;5077784;28;45251;-76
2022/06/13 09:48:40;;;;;;;9.63;2.28;;;17.70;99.90;;;;;;5084335;27;46412;-77
2022/06/13 09:51:21;;;;;;;13.15;2.63;;;17.60;99.90;;;;;;5087274;27;45838;-77
2022/06/13 09:53:57;;;;;;;14.48;3.03;;;17.60;99.90;;;;;;5083063;27;45338;-77
2022/06/13 09:56:32;;;;;;;15.05;3.03;;;17.60;99.70;;;;;;5083718;27;45515;-77
2022/06/13 09:59:13;;;;;;;10.00;2.55;;;17.80;99.90;;;;;;5096441;27;45242;-77
2022/06/13 10:01:45;;;;;;;10.15;2.83;;;17.30;99.90;;;;;;5069642;28;46001;-77
2022/06/13 10:04:18;;;;;;;7.28;2.60;;;17.70;99.70;;;;;;5092863;27;45285;-77
2022/06/13 10:06:49;;;;;;;9.30;2.33;;;17.70;98.40;;;;;;5084645;27;46594;-77
2022/06/13 10:09:30;;;;;;;14.00;2.72;;;17.80;97.30;;;;;;5092679;27;47959;-72
2022/06/13 10:12:03;;;;;;;10.95;3.50;;;17.50;97.50;;;;;;5086514;27;45280;-76
2022/06/13 10:14:53;;;;;;;12.68;2.75;;;17.20;97.40;;;;;;5085311;27;45373;-75
2022/06/13 10:17:32;;;;;;;11.80;2.33;;;17.30;98.40;;;;;;5074883;28;45389;-75
2022/06/13 10:20:06;;;;;;;11.70;2.58;;;17.40;99.90;;;;;;5085120;27;45362;-75
2022/06/13 10:22:44;;;;;;;12.70;2.65;;;17.10;99.60;;;;;;5099691;27;45616;-75
2022/06/13 10:25:24;;;;;;;12.75;2.55;;;17.30;98.30;;;;;;5093963;27;45632;-75
2022/06/13 10:28:01;;;;;;;14.45;2.72;;;17.60;98.50;;;;;;5095123;27;45180;-75
2022/06/13 10:30:41;;;;;;;6.38;2.03;;;18.10;97.00;;;;;;5076407;27;46181;-75
2022/06/13 10:33:21;;;;;;;7.55;1.70;;;18.70;92.10;;;;;;5081345;28;45275;-76
2022/06/13 10:35:51;;;;;;;8.57;2.35;;;18.80;92.00;;;;;;5075947;28;45387;-76
2022/06/13 10:38:33;;;;;;;7.10;1.70;;;18.60;92.20;;;;;;5072270;27;45457;-75
2022/06/13 10:41:00;;;;;;;8.73;2.25;;;18.70;93.80;;;;;;5096579;27;47087;-75
2022/06/13 10:43:27;;;;;;;9.73;2.28;;;18.60;92.50;;;;;;5093991;27;45239;-75
2022/06/13 10:45:54;;;;;;;8.10;1.73;;;18.80;93.10;;;;;;5092249;27;45467;-76
2022/06/13 10:48:25;;;;;;;6.90;1.73;;;18.80;92.80;;;;;;5082125;27;45329;-76
2022/06/13 10:50:56;;;;;;;7.57;1.90;;;18.50;91.60;;;;;;5093930;27;45625;-76
2022/06/13 10:53:27;;;;;;;5.47;2.00;;;18.50;92.40;;;;;;5078189;28;45248;-75
2022/06/13 10:55:56;;;;;;;6.30;1.85;;;18.10;93.50;;;;;;5082211;27;46864;-75
2022/06/13 10:58:26;;;;;;;5.25;1.70;;;18.50;93.80;;;;;;5078139;27;45658;-75
2022/06/13 11:01:09;;;;;;;7.60;2.13;;;18.20;94.40;;;;;;5076805;27;46283;-73
2022/06/13 11:03:37;;;;;;;9.57;1.88;;;18.30;94.10;;;;;;5078428;27;45348;-75
2022/06/13 11:06:07;;;;;;;8.35;1.90;;;18.50;94.10;;;;;;5064246;27;45559;-75
2022/06/13 11:08:35;;;;;;;4.90;1.27;;;18.80;93.20;;;;;;5080052;27;45389;-75
2022/06/13 11:11:05;;;;;;;7.90;2.47;;;18.70;93.20;;;;;;5071280;27;48277;-76
2022/06/13 11:13:36;;;;;;;10.60;2.30;;;18.50;95.10;;;;;;5074461;27;45504;-73
2022/06/13 11:24:43;;;;;;;6.03;1.90;;;18.70;92.60;;;;;;5074911;28;45473;-72
2022/06/13 11:33:40;;;;;;;6.28;1.60;;;19.10;92.00;;;;;;5065545;27;46944;-73
2022/06/13 11:36:22;;;;;;;4.88;1.30;;;19.10;92.30;;;;;;5077369;27;45167;-73
2022/06/13 11:42:18;;;;;;;7.50;1.75;;;19.20;92.80;;;;;;5060430;27;46889;-75
2022/06/13 11:45:50;;;;;;;6.32;1.60;;;19.30;92.70;;;;;;5074120;27;47028;-73
2022/06/13 11:48:18;;;;;;;7.30;1.70;;;19.20;92.80;;;;;;5079368;27;45228;-73
2022/06/13 11:50:44;;;;;;;3.53;1.35;;;19.10;92.00;;;;;;5079174;27;45275;-74
2022/06/13 11:56:03;;;;;;;8.98;1.70;;;19.10;93.40;;;;;;5074456;27;45275;-74
2022/06/13 11:58:37;;;;;;;7.50;1.50;;;19.10;92.70;;;;;;5080607;27;45657;-74
2022/06/13 12:01:13;;;;;;;4.68;1.17;;;19.10;93.60;;;;;;5079679;27;45587;-74
2022/06/13 12:03:43;;;;;;;5.32;1.58;;;19.30;93.20;;;;;;5080570;27;45381;-74
2022/06/13 12:06:13;;;;;;;4.53;1.38;;;19.30;93.00;;;;;;5081822;27;45992;-74
2022/06/13 12:08:40;;;;;;;5.38;1.42;;;19.30;93.50;;;;;;5079316;27;45363;-74
2022/06/13 12:14:33;;;;;;;5.28;1.40;;;19.10;91.30;;;;;;5072796;27;45195;-74
2022/06/13 12:17:06;;;;;;;6.05;1.30;;;19.00;91.90;;;;;;5085752;27;46315;-74
2022/06/13 12:19:38;;;;;;;6.15;1.20;;;19.10;92.50;;;;;;5088948;27;45398;-75
2022/06/13 12:25:31;;;;;;;5.15;1.05;;;19.40;91.60;;;;;;5082870;27;45280;-75
2022/06/13 12:28:05;;;;;;;7.50;1.10;;;19.60;90.70;;;;;;5089917;27;47416;-78
2022/06/13 12:30:55;;;;;;;4.25;1.15;;;19.60;91.20;;;;;;5081749;27;45748;-77
2022/06/13 12:33:36;;;;;;;4.82;1.15;;;19.80;91.50;;;;;;5071164;28;45408;-77
2022/06/13 12:36:20;;;;;;;7.32;1.27;;;19.80;90.30;;;;;;5086745;27;45224;-77
2022/06/13 12:39:01;;;;;;;3.78;1.17;;;19.90;91.00;;;;;;5087830;27;48060;-77
2022/06/13 12:41:37;;;;;;;8.23;1.70;;;19.90;90.80;;;;;;5083692;27;45979;-76
2022/06/13 12:44:25;;;;;;;5.45;1.38;;;19.90;91.60;;;;;;5087870;27;45184;-76
2022/06/13 12:47:12;;;;;;;5.65;1.90;;;19.80;90.80;;;;;;5090791;28;45256;-76
2022/06/13 12:49:59;;;;;;;7.15;1.30;;;19.80;91.00;;;;;;5062065;27;46999;-77
2022/06/13 12:52:46;;;;;;;4.03;1.40;;;20.00;92.10;;;;;;5083113;27;45375;-76
2022/06/13 12:55:31;;;;;;;4.03;1.17;;;19.80;91.60;;;;;;5091966;27;45261;-76
2022/06/13 12:58:28;;;;;;;3.33;1.30;;;19.80;90.80;;;;;;5102836;27;45352;-76
2022/06/13 13:01:02;;;;;;;4.70;1.80;;;19.70;92.30;;;;;;5095754;27;46187;-76
2022/06/13 13:03:56;;;;;;;3.53;1.60;;;19.70;92.20;;;;;;5090458;28;45209;-76
2022/06/13 13:06:33;;;;;;;6.57;1.65;;;19.70;93.50;;;;;;5096020;27;45274;-76
2022/06/13 13:09:16;;;;;;;4.75;1.38;;;19.70;92.70;;;;;;5082276;27;45401;-76
2022/06/13 13:11:55;;;;;;;3.20;1.40;;;19.60;92.10;;;;;;5094958;27;46317;-76
2022/06/13 13:14:39;;;;;;;4.55;1.35;;;19.30;90.70;;;;;;5092152;27;45247;-76
2022/06/13 13:17:15;;;;;;;4.60;1.13;;;19.10;91.20;;;;;;5085367;28;45251;-76
2022/06/13 13:19:51;;;;;;;5.07;1.33;;;19.30;91.60;;;;;;5095555;27;45335;-76
2022/06/13 13:22:25;;;;;;;4.80;1.55;;;19.50;92.30;;;;;;5081201;27;46341;-76
2022/06/13 13:25:05;;;;;;;4.90;1.13;;;19.20;90.90;;;;;;5082889;28;45678;-76
2022/06/13 13:27:39;;;;;;;5.68;1.23;;;19.10;90.30;;;;;;5085235;28;45173;-76
2022/06/13 13:30:16;;;;;;;4.85;1.15;;;19.10;89.00;;;;;;5068875;28;45229;-76
2022/06/13 13:32:54;;;;;;;3.40;1.20;;;19.00;88.10;;;;;;5075688;28;46186;-76
2022/06/13 13:35:33;;;;;;;4.80;1.40;;;19.00;88.60;;;;;;5072304;28;46085;-76
2022/06/13 13:38:07;;;;;;;5.18;0.85;;;19.20;88.80;;;;;;5087185;27;46021;-76
2022/06/13 13:40:41;;;;;;;4.28;1.27;;;19.50;85.90;;;;;;5096136;27;45255;-76
2022/06/13 13:43:17;;;;;;;4.70;1.00;;;19.70;86.40;;;;;;5075012;27;47588;-75
2022/06/13 13:45:48;;;;;;;4.18;1.15;;;19.60;88.60;;;;;;5079063;27;45247;-76
2022/06/13 13:48:24;;;;;;;7.05;0.85;;;19.40;87.80;;;;;;5089571;27;45462;-76
2022/06/13 13:51:00;;;;;;;3.17;0.98;;;19.60;87.10;;;;;;5083331;27;45504;-76
2022/06/13 13:53:34;;;;;;;3.05;0.70;;;19.50;85.10;;;;;;5089660;27;45634;-76
2022/06/13 13:56:12;;;;;;;4.72;0.98;;;20.10;86.20;;;;;;5093644;27;45215;-76
2022/06/13 13:58:39;;;;;;;4.80;1.08;;;20.60;84.20;;;;;;5093952;27;45317;-75
2022/06/13 14:01:25;;;;;;;2.97;0.90;;;20.90;79.10;;;;;;5083953;27;46279;-75
2022/06/13 14:04:13;;;;;;;2.75;0.70;;;20.60;81.40;;;;;;5090418;27;45235;-75
2022/06/13 14:06:45;;;;;;;7.03;1.20;;;20.00;86.20;;;;;;5094509;27;45257;-75
2022/06/13 14:09:18;;;;;;;5.53;1.10;;;19.80;89.40;;;;;;5082874;27;45306;-75
2022/06/13 14:12:08;;;;;;;4.60;0.80;;;19.70;90.30;;;;;;5095660;27;45335;-75
2022/06/13 14:14:50;;;;;;;3.88;1.10;;;19.70;90.10;;;;;;5092077;27;46593;-75
2022/06/13 14:17:23;;;;;;;2.08;0.68;;;19.70;90.00;;;;;;5067952;28;45141;-75
2022/06/13 14:19:54;;;;;;;4.00;1.13;;;19.70;85.90;;;;;;5083319;28;45708;-75
2022/06/13 14:22:23;;;;;;;2.95;0.85;;;20.10;86.90;;;;;;5091487;27;45478;-74
2022/06/13 14:25:03;;;;;;;2.05;0.75;;;20.40;86.50;;;;;;5094579;27;45466;-74
2022/06/13 14:27:31;;;;;;;5.25;1.13;;;20.50;84.70;;;;;;5098842;27;45381;-74
2022/06/13 14:33:03;;;;;;;5.35;0.95;;;20.30;87.70;;;;;;5081081;28;45193;-74